Map

Track Data

SID SEASON NUMBER BASIN SUBBASIN NAME ISO_TIME NATURE LAT LON WMO_WIND WMO_PRES WMO_AGENCY TRACK_TYPE DIST2LAND LANDFALL IFLAG USA_AGENCY USA_ATCF_ID USA_LAT USA_LON USA_RECORD USA_STATUS USA_WIND USA_PRES USA_SSHS USA_R34_NE USA_R34_SE USA_R34_SW USA_R34_NW USA_R50_NE USA_R50_SE USA_R50_SW USA_R50_NW USA_R64_NE USA_R64_SE USA_R64_SW USA_R64_NW USA_POCI USA_ROCI USA_RMW USA_EYE TOKYO_LAT TOKYO_LON TOKYO_GRADE TOKYO_WIND TOKYO_PRES TOKYO_R50_DIR TOKYO_R50_LONG TOKYO_R50_SHORT TOKYO_R30_DIR TOKYO_R30_LONG TOKYO_R30_SHORT TOKYO_LAND CMA_LAT CMA_LON CMA_CAT CMA_WIND CMA_PRES HKO_LAT HKO_LON HKO_CAT HKO_WIND HKO_PRES NEWDELHI_LAT NEWDELHI_LON NEWDELHI_GRADE NEWDELHI_WIND NEWDELHI_PRES NEWDELHI_CI NEWDELHI_DP NEWDELHI_POCI REUNION_LAT REUNION_LON REUNION_TYPE REUNION_WIND REUNION_PRES REUNION_TNUM REUNION_CI REUNION_RMW REUNION_R34_NE REUNION_R34_SE REUNION_R34_SW REUNION_R34_NW REUNION_R50_NE REUNION_R50_SE REUNION_R50_SW REUNION_R50_NW REUNION_R64_NE REUNION_R64_SE REUNION_R64_SW REUNION_R64_NW BOM_LAT BOM_LON BOM_TYPE BOM_WIND BOM_PRES BOM_TNUM BOM_CI BOM_RMW BOM_R34_NE BOM_R34_SE BOM_R34_SW BOM_R34_NW BOM_R50_NE BOM_R50_SE BOM_R50_SW BOM_R50_NW BOM_R64_NE BOM_R64_SE BOM_R64_SW BOM_R64_NW BOM_ROCI BOM_POCI BOM_EYE BOM_POS_METHOD BOM_PRES_METHOD NADI_LAT NADI_LON NADI_CAT NADI_WIND NADI_PRES WELLINGTON_LAT WELLINGTON_LON WELLINGTON_WIND WELLINGTON_PRES DS824_LAT DS824_LON DS824_STAGE DS824_WIND DS824_PRES TD9636_LAT TD9636_LON TD9636_STAGE TD9636_WIND TD9636_PRES TD9635_LAT TD9635_LON TD9635_WIND TD9635_PRES TD9635_ROCI NEUMANN_LAT NEUMANN_LON NEUMANN_CLASS NEUMANN_WIND NEUMANN_PRES MLC_LAT MLC_LON MLC_CLASS MLC_WIND MLC_PRES USA_GUST BOM_GUST BOM_GUST_PER REUNION_GUST REUNION_GUST_PER USA_SEAHGT USA_SEARAD_NE USA_SEARAD_SE USA_SEARAD_SW USA_SEARAD_NW STORM_SPEED STORM_DIR
1932030S14133 1932 8 SI WA NOT_NAMED 1932-01-29 23:00:00 NR -14.3000 133.000 main 0 0 __________O___ -1 -14.3000 133.000 7 14 14
1932030S14133 1932 8 SI WA NOT_NAMED 1932-01-29 23:30:00 NR -14.1846 133.011 bom main 0 0 ______O___P___ -1 -14.0000 133.000 -14.2770 133.016 7 11 0
1932030S14133 1932 8 SI WA NOT_NAMED 1932-01-30 00:00:00 TS -14.1138 133.017 main 0 0 ______P__OP___ -1 -13.9607 133.003 -14.0000 133.000 TC -14.2539 133.032 7 5 12
1932030S14133 1932 8 SI WA NOT_NAMED 1932-01-30 03:00:00 TS -13.9086 133.068 main 0 0 ______P__PP___ -1 -13.7276 133.022 -13.7696 133.022 TC -14.1139 133.126 7 4 11
1932030S14133 1932 8 SI WA NOT_NAMED 1932-01-30 06:00:00 TS -13.6860 133.101 main 0 0 ______P__PP___ -1 -13.5066 133.038 -13.5492 133.041 TC -13.9680 133.209 7 4 7
1932030S14133 1932 8 SI WA NOT_NAMED 1932-01-30 09:00:00 TS -13.4896 133.124 main 0 0 ______P__PP___ -1 -13.3081 133.047 -13.3488 133.053 TC -13.8119 133.272 7 4 8
1932030S14133 1932 8 SI WA NOT_NAMED 1932-01-30 11:00:00 TS -13.3749 133.135 main 0 0 ______P__PO___ -1 -13.1934 133.048 -13.2314 133.056 TC -13.7000 133.300 7 3 0
1932030S14133 1932 8 SI WA NOT_NAMED 1932-01-30 12:00:00 TS -13.3209 133.137 main 0 0 ______P__PP___ -1 -13.1425 133.046 -13.1786 133.055 TC -13.6414 133.309 7 3 354
1932030S14133 1932 8 SI WA NOT_NAMED 1932-01-30 15:00:00 TS -13.1782 133.129 main 0 0 ______P__PP___ -1 -13.0203 133.033 -13.0486 133.044 TC -13.4656 133.311 7 2 349
1932030S14133 1932 8 SI WA NOT_NAMED 1932-01-30 18:00:00 TS -13.0782 133.098 main 0 0 ______P__PP___ -1 -12.9517 133.004 -12.9688 133.017 TC -13.3139 133.272 7 2 327
1932030S14133 1932 8 SI WA NOT_NAMED 1932-01-30 21:00:00 TS -13.0381 133.038 main 0 0 ______P__PP___ -1 -12.9473 132.956 -12.9493 132.970 TC -13.2178 133.186 7 1 283
1932030S14133 1932 8 SI WA NOT_NAMED 1932-01-30 23:00:00 TS -13.0532 132.980 main 0 0 ______P__PO___ -1 -12.9850 132.913 -12.9747 132.926 TC -13.2000 133.100 7 2 249
1932030S14133 1932 8 SI WA NOT_NAMED 1932-01-30 23:30:00 TS -13.0626 132.963 bom main 0 0 ______O__PP___ -1 -13.0000 132.900 -12.9862 132.913 TC -13.2016 133.075 7 2 238
1932030S14133 1932 8 SI WA NOT_NAMED 1932-01-31 00:00:00 TS -13.0743 132.945 main 0 0 ______P__OP___ -1 -13.0173 132.887 -13.0000 132.900 TC -13.2058 133.048 7 3 227
1932030S14133 1932 8 SI WA NOT_NAMED 1932-01-31 03:00:00 TS -13.1908 132.817 main 0 0 ______P__PP___ -1 -13.1649 132.792 -13.1269 132.803 TC -13.2806 132.855 7 4 223
1932030S14133 1932 8 SI WA NOT_NAMED 1932-01-31 06:00:00 TS -13.3749 132.654 main 0 0 ______P__PP___ -1 -13.3762 132.665 -13.3190 132.676 TC -13.4295 132.621 7 5 220
1932030S14133 1932 8 SI WA NOT_NAMED 1932-01-31 09:00:00 TS -13.6109 132.461 main 0 0 ______P__PP___ -1 -13.6342 132.502 -13.5614 132.513 TC -13.6369 132.368 7 6 219
1932030S14133 1932 8 SI WA NOT_NAMED 1932-01-31 11:00:00 TS -13.7891 132.317 main 0 0 ______P__PO___ -1 -13.8239 132.369 -13.7435 132.382 TC -13.8000 132.200 7 7 217
1932030S14133 1932 8 SI WA NOT_NAMED 1932-01-31 12:00:00 TS -13.8819 132.253 main 0 0 ______P__PP___ -1 -13.9221 132.296 -13.8391 132.309 TC -13.8845 132.153 7 7 215
1932030S14133 1932 8 SI WA NOT_NAMED 1932-01-31 15:00:00 TS -14.1777 132.042 main 0 0 ______P__PP___ -1 -14.2233 132.040 -14.1368 132.061 TC -14.1729 132.024 7 8 217
1932030S14133 1932 8 SI WA NOT_NAMED 1932-01-31 18:00:00 TS -14.4835 131.784 main 0 0 ______P__PP___ -1 -14.5206 131.730 -14.4397 131.763 TC -14.4902 131.857 7 8 224
1932030S14133 1932 8 SI WA NOT_NAMED 1932-01-31 21:00:00 TS -14.7785 131.450 main 0 0 ______P__PP___ -1 -14.7974 131.360 -14.7325 131.411 TC -14.8058 131.581 7 9 231
1932030S14133 1932 8 SI WA NOT_NAMED 1932-01-31 23:00:00 TS -14.9589 131.173 main 0 0 ______P__PO___ -1 -14.9620 131.076 -14.9146 131.144 TC -15.0000 131.300 7 10 238
1932030S14133 1932 8 SI WA NOT_NAMED 1932-01-31 23:30:00 TS -14.9992 131.092 bom main 0 0 ______O__PP___ -1 -15.0000 131.000 -14.9578 131.073 TC -15.0398 131.202 7 11 246
1932030S14133 1932 8 SI WA NOT_NAMED 1932-02-01 00:00:00 TS -15.0333 131.005 main 0 0 ______P__OP___ -1 -15.0215 130.918 -15.0000 131.000 TC -15.0784 131.097 7 12 255
1932030S14133 1932 8 SI WA NOT_NAMED 1932-02-01 03:00:00 TS -15.1834 130.403 main 0 0 ______P__PP___ -1 -15.1291 130.382 -15.1309 130.470 TC -15.2901 130.356 7 13 257
1932030S14133 1932 8 SI WA NOT_NAMED 1932-02-01 06:00:00 TS -15.3094 129.717 main 0 0 ______P__PP___ -1 -15.2117 129.782 -15.2363 129.870 TC -15.4803 129.498 7 14 260
1932030S14133 1932 8 SI WA NOT_NAMED 1932-02-01 09:00:00 TS -15.4277 128.998 main 0 0 ______P__PP___ -1 -15.2864 129.140 -15.3295 129.224 TC -15.6673 128.631 7 14 260
1932030S14133 1932 8 SI WA NOT_NAMED 1932-02-01 11:00:00 TS -15.5106 128.526 main 0 0 ______P__PO___ -1 -15.3401 128.701 -15.3916 128.778 TC -15.8000 128.100 7 14 259
1932030S14133 1932 8 SI WA NOT_NAMED 1932-02-01 12:00:00 TS -15.5560 128.304 main 0 0 ______P__PP___ -1 -15.3702 128.480 -15.4242 128.553 TC -15.8737 127.877 7 13 257
1932030S14133 1932 8 SI WA NOT_NAMED 1932-02-01 15:00:00 TS -15.7068 127.658 main 0 0 ______P__PP___ -1 -15.4806 127.826 -15.5343 127.883 TC -16.1055 127.264 7 12 255
1932030S14133 1932 8 SI WA NOT_NAMED 1932-02-01 18:00:00 TS -15.8875 127.055 main 0 0 ______P__PP___ -1 -15.6354 127.199 -15.6740 127.235 TC -16.3531 126.730 7 12 252
1932030S14133 1932 8 SI WA NOT_NAMED 1932-02-01 19:00:00 TS -15.9562 126.866 bom main 0 0 ______O__PP___ -1 -15.7000 127.000 -15.7296 127.028 TC -16.4391 126.569 7 11 248
1932030S14133 1932 8 SI WA NOT_NAMED 1932-02-01 21:00:00 TS -16.1056 126.505 main 0 0 ______P__PP___ -1 -15.8430 126.612 -15.8577 126.633 TC -16.6162 126.270 7 11 245
1932030S14133 1932 8 SI WA NOT_NAMED 1932-02-01 23:00:00 TS -16.2734 126.170 main 0 0 ______P__PO___ -1 -16.0085 126.241 -16.0118 126.269 TC -16.8000 126.000 7 11 242
1932030S14133 1932 8 SI WA NOT_NAMED 1932-02-02 00:00:00 TS -16.3601 126.010 main 0 0 ______P__OP___ -1 -16.1008 126.066 -16.1000 126.100 TC -16.8795 125.863 7 10 239
1932030S14133 1932 8 SI WA NOT_NAMED 1932-02-02 01:00:00 TS -16.4518 125.859 bom main 0 0 ______O__PP___ -1 -16.2000 125.900 -16.1962 125.941 TC -16.9593 125.735 7 10 234
1932030S14133 1932 8 SI WA NOT_NAMED 1932-02-02 03:00:00 TS -16.6519 125.583 main 0 0 ______P__PP___ -1 -16.4200 125.597 -16.4119 125.652 TC -17.1238 125.501 7 10 228
1932030S14133 1932 8 SI WA NOT_NAMED 1932-02-02 06:00:00 TS -16.9958 125.232 main 0 0 ______P__PP___ -1 -16.8002 125.213 -16.7887 125.284 TC -17.3986 125.200 7 10 219
1932030S14133 1932 8 SI WA NOT_NAMED 1932-02-02 09:00:00 TS -17.3955 124.944 main 0 0 ______P__PP___ -1 -17.2335 124.902 -17.2212 124.983 TC -17.7317 124.947 7 10 212
1932030S14133 1932 8 SI WA NOT_NAMED 1932-02-02 11:00:00 TS -17.6947 124.782 main 0 0 ______P__PO___ -1 -17.5479 124.729 -17.5362 124.815 TC -18.0000 124.800 7 10 206
1932030S14133 1932 8 SI WA NOT_NAMED 1932-02-02 12:00:00 TS -17.8544 124.708 main 0 0 ______P__PP___ -1 -17.7118 124.652 -17.7006 124.739 TC -18.1508 124.731 7 11 201
1932030S14133 1932 8 SI WA NOT_NAMED 1932-02-02 15:00:00 TS -18.3692 124.511 main 0 0 ______P__PP___ -1 -18.2268 124.453 -18.2175 124.540 TC -18.6632 124.541 7 11 198
1932030S14133 1932 8 SI WA NOT_NAMED 1932-02-02 18:00:00 TS -18.8971 124.343 main 0 0 ______P__PP___ -1 -18.7701 124.292 -18.7627 124.375 TC -19.2456 124.368 7 11 196
1932030S14133 1932 8 SI WA NOT_NAMED 1932-02-02 21:00:00 TS -19.4507 124.193 main 0 0 ______P__PP___ -1 -19.3333 124.158 -19.3267 124.232 TC -19.8715 124.206 7 11 194
1932030S14133 1932 8 SI WA NOT_NAMED 1932-02-02 23:00:00 TS -19.8105 124.103 main 0 0 ______P__PO___ -1 -19.7154 124.077 -19.7085 124.144 TC -20.3000 124.100 7 9 195
1932030S14133 1932 8 SI WA NOT_NAMED 1932-02-03 00:00:00 TS -19.9050 124.059 main 0 0 ______P__O____ -1 -19.9076 124.038 -19.9000 124.100 TC 40 994 7 9 199
1932030S14133 1932 8 SI WA NOT_NAMED 1932-02-03 01:00:00 NR -20.1000 124.000 994 bom main 0 ______O_______ -1 -20.1000 124.000 994 4 TC 7 12 195

About IBTrACS Database

This database is a web-friendly format of International Best Track Archive for Climate Stewardship (IBTrACS), a global best track data archive curated by NOAA dating back to 1842.

Updated: 2021-11-26